sensor_id;sensor_type;location;lat;lon;timestamp;pressure;altitude;pressure_sealevel;temperature;humidity
65534;BME280;53640;55.838;37.184;2023-04-22T00:00:31;98657.44;;;9.40;32.02
65534;BME280;53640;55.838;37.184;2023-04-22T00:03:02;98629.50;;;9.16;31.74
65534;BME280;53640;55.838;37.184;2023-04-22T00:05:35;98720.94;;;9.68;31.93
65534;BME280;53640;55.838;37.184;2023-04-22T00:08:03;98687.53;;;9.44;32.17
65534;BME280;53640;55.838;37.184;2023-04-22T00:12:59;98716.91;;;9.58;32.49
65534;BME280;53640;55.838;37.184;2023-04-22T00:15:29;98673.69;;;9.22;32.36
65534;BME280;53640;55.838;37.184;2023-04-22T00:18:07;98635.47;;;8.88;32.39
65534;BME280;53640;55.838;37.184;2023-04-22T00:20:41;98651.03;;;9.04;32.60
65534;BME280;53640;55.838;37.184;2023-04-22T00:23:11;98708.06;;;9.33;32.73
65534;BME280;53640;55.838;37.184;2023-04-22T00:25:42;98706.81;;;9.29;33.09
65534;BME280;53640;55.838;37.184;2023-04-22T00:28:08;98704.88;;;9.18;32.99
65534;BME280;53640;55.838;37.184;2023-04-22T00:30:35;98652.97;;;8.79;33.04
65534;BME280;53640;55.838;37.184;2023-04-22T00:33:01;98718.84;;;9.15;33.51
65534;BME280;53640;55.838;37.184;2023-04-22T00:35:28;98677.59;;;8.89;33.55
65534;BME280;53640;55.838;37.184;2023-04-22T00:37:57;98668.19;;;8.73;33.76
65534;BME280;53640;55.838;37.184;2023-04-22T00:40:23;98718.53;;;9.04;33.66
65534;BME280;53640;55.838;37.184;2023-04-22T00:42:50;98674.41;;;8.74;33.92
65534;BME280;53640;55.838;37.184;2023-04-22T00:45:18;98667.97;;;8.75;33.62
65534;BME280;53640;55.838;37.184;2023-04-22T00:47:47;98608.84;;;8.30;33.77
65534;BME280;53640;55.838;37.184;2023-04-22T00:50:14;98662.03;;;8.66;33.62
65534;BME280;53640;55.838;37.184;2023-04-22T00:52:40;98707.22;;;8.96;33.82
65534;BME280;53640;55.838;37.184;2023-04-22T00:55:07;98658.72;;;8.64;33.85
65534;BME280;53640;55.838;37.184;2023-04-22T00:57:34;98681.91;;;8.72;33.83
65534;BME280;53640;55.838;37.184;2023-04-22T01:00:01;98688.78;;;8.68;34.02
65534;BME280;53640;55.838;37.184;2023-04-22T01:02:32;98679.94;;;8.60;34.01
65534;BME280;53640;55.838;37.184;2023-04-22T01:04:59;98712.97;;;8.81;33.92
65534;BME280;53640;55.838;37.184;2023-04-22T01:07:26;98550.03;;;7.70;33.98
65534;BME280;53640;55.838;37.184;2023-04-22T01:09:52;98661.66;;;8.38;34.23
65534;BME280;53640;55.838;37.184;2023-04-22T01:12:19;98637.13;;;8.21;34.09
65534;BME280;53640;55.838;37.184;2023-04-22T01:14:45;98700.31;;;8.56;34.26
65534;BME280;53640;55.838;37.184;2023-04-22T01:17:13;98704.44;;;8.59;34.43
65534;BME280;53640;55.838;37.184;2023-04-22T01:19:43;98613.84;;;8.01;34.77
65534;BME280;53640;55.838;37.184;2023-04-22T01:22:12;98658.19;;;8.30;34.57
65534;BME280;53640;55.838;37.184;2023-04-22T01:24:39;98683.88;;;8.40;34.63
65534;BME280;53640;55.838;37.184;2023-04-22T01:27:07;98685.28;;;8.42;34.58
65534;BME280;53640;55.838;37.184;2023-04-22T01:29:35;98679.97;;;8.35;34.80
65534;BME280;53640;55.838;37.184;2023-04-22T01:32:04;98625.22;;;8.03;34.78
65534;BME280;53640;55.838;37.184;2023-04-22T01:34:31;98660.75;;;8.25;34.69
65534;BME280;53640;55.838;37.184;2023-04-22T01:36:58;98623.63;;;7.96;34.82
65534;BME280;53640;55.838;37.184;2023-04-22T01:39:24;98682.69;;;8.29;34.55
65534;BME280;53640;55.838;37.184;2023-04-22T01:41:51;98588.78;;;7.69;34.95
65534;BME280;53640;55.838;37.184;2023-04-22T01:44:19;98671.53;;;8.19;34.73
65534;BME280;53640;55.838;37.184;2023-04-22T01:46:45;98706.06;;;8.35;35.13
65534;BME280;53640;55.838;37.184;2023-04-22T01:49:12;98678.81;;;8.18;34.95
65534;BME280;53640;55.838;37.184;2023-04-22T01:51:38;98683.75;;;8.21;34.89
65534;BME280;53640;55.838;37.184;2023-04-22T01:54:05;98681.50;;;8.18;35.19
65534;BME280;53640;55.838;37.184;2023-04-22T01:56:31;98669.97;;;8.04;35.26
65534;BME280;53640;55.838;37.184;2023-04-22T01:58:58;98683.66;;;8.09;35.40
65534;BME280;53640;55.838;37.184;2023-04-22T02:01:24;98657.00;;;7.95;35.67
65534;BME280;53640;55.838;37.184;2023-04-22T02:03:51;98627.94;;;7.72;35.32
65534;BME280;53640;55.838;37.184;2023-04-22T02:06:17;98704.13;;;8.17;35.77
65534;BME280;53640;55.838;37.184;2023-04-22T02:08:43;98661.38;;;7.89;35.74
65534;BME280;53640;55.838;37.184;2023-04-22T02:11:12;98651.94;;;7.80;35.65
65534;BME280;53640;55.838;37.184;2023-04-22T02:13:39;98591.25;;;7.39;35.61
65534;BME280;53640;55.838;37.184;2023-04-22T02:16:08;98698.63;;;8.05;35.41
65534;BME280;53640;55.838;37.184;2023-04-22T02:18:35;98657.97;;;7.75;35.70
65534;BME280;53640;55.838;37.184;2023-04-22T02:21:05;98684.34;;;7.98;35.66
65534;BME280;53640;55.838;37.184;2023-04-22T02:23:31;98681.47;;;7.93;36.08
65534;BME280;53640;55.838;37.184;2023-04-22T02:25:58;98674.03;;;7.88;35.90
65534;BME280;53640;55.838;37.184;2023-04-22T02:28:24;98699.63;;;8.04;36.12
65534;BME280;53640;55.838;37.184;2023-04-22T02:30:52;98677.34;;;7.91;35.69
65534;BME280;53640;55.838;37.184;2023-04-22T02:33:18;98693.66;;;8.02;35.83
65534;BME280;53640;55.838;37.184;2023-04-22T02:35:45;98696.63;;;7.94;36.02
65534;BME280;53640;55.838;37.184;2023-04-22T02:38:17;98661.47;;;7.76;35.90
65534;BME280;53640;55.838;37.184;2023-04-22T02:40:46;98691.00;;;7.96;35.90
65534;BME280;53640;55.838;37.184;2023-04-22T02:43:12;98590.09;;;7.22;36.43
65534;BME280;53640;55.838;37.184;2023-04-22T02:45:39;98706.19;;;7.90;36.21
65534;BME280;53640;55.838;37.184;2023-04-22T02:48:06;98642.78;;;7.49;36.58
65534;BME280;53640;55.838;37.184;2023-04-22T02:50:33;98685.72;;;7.76;36.50
65534;BME280;53640;55.838;37.184;2023-04-22T02:52:59;98690.25;;;7.82;36.20
65534;BME280;53640;55.838;37.184;2023-04-22T02:55:26;98711.16;;;7.86;36.25
65534;BME280;53640;55.838;37.184;2023-04-22T02:57:54;98665.13;;;7.56;36.62
65534;BME280;53640;55.838;37.184;2023-04-22T03:00:21;98662.44;;;7.56;36.68
65534;BME280;53640;55.838;37.184;2023-04-22T03:02:47;98698.28;;;7.88;36.72
65534;BME280;53640;55.838;37.184;2023-04-22T03:05:15;98670.84;;;7.67;36.40
65534;BME280;53640;55.838;37.184;2023-04-22T03:07:43;98614.69;;;7.32;36.42
65534;BME280;53640;55.838;37.184;2023-04-22T03:10:10;98665.28;;;7.61;36.39
65534;BME280;53640;55.838;37.184;2023-04-22T03:12:36;98702.47;;;7.84;36.46
65534;BME280;53640;55.838;37.184;2023-04-22T03:15:04;98627.31;;;7.38;36.52
65534;BME280;53640;55.838;37.184;2023-04-22T03:17:33;98679.94;;;7.72;36.53
65534;BME280;53640;55.838;37.184;2023-04-22T03:20:04;98678.09;;;7.66;36.45
65534;BME280;53640;55.838;37.184;2023-04-22T03:22:31;98646.47;;;7.55;36.41
65534;BME280;53640;55.838;37.184;2023-04-22T03:25:01;98684.91;;;7.75;36.47
65534;BME280;53640;55.838;37.184;2023-04-22T03:27:32;98696.44;;;7.82;36.69
65534;BME280;53640;55.838;37.184;2023-04-22T03:29:58;98687.16;;;7.78;36.54
65534;BME280;53640;55.838;37.184;2023-04-22T03:32:25;98656.59;;;7.59;37.00
65534;BME280;53640;55.838;37.184;2023-04-22T03:35:07;98701.25;;;7.80;37.00
65534;BME280;53640;55.838;37.184;2023-04-22T03:37:34;98702.22;;;7.86;36.75
65534;BME280;53640;55.838;37.184;2023-04-22T03:40:01;98732.19;;;8.03;36.41
65534;BME280;53640;55.838;37.184;2023-04-22T03:42:30;98702.47;;;7.84;36.48
65534;BME280;53640;55.838;37.184;2023-04-22T03:44:57;98620.91;;;7.32;36.90
65534;BME280;53640;55.838;37.184;2023-04-22T03:47:31;98730.59;;;7.95;37.14
65534;BME280;53640;55.838;37.184;2023-04-22T03:50:06;98634.56;;;7.37;37.04
65534;BME280;53640;55.838;37.184;2023-04-22T03:52:34;98688.22;;;7.71;36.76
65534;BME280;53640;55.838;37.184;2023-04-22T03:55:02;98734.25;;;8.07;37.16
65534;BME280;53640;55.838;37.184;2023-04-22T03:57:30;98688.00;;;7.79;37.01
65534;BME280;53640;55.838;37.184;2023-04-22T04:00:00;98749.16;;;8.10;36.93
65534;BME280;53640;55.838;37.184;2023-04-22T04:02:27;98721.84;;;8.00;36.73
65534;BME280;53640;55.838;37.184;2023-04-22T04:04:56;98734.88;;;8.09;37.06
65534;BME280;53640;55.838;37.184;2023-04-22T04:07:29;98707.81;;;7.91;36.91
65534;BME280;53640;55.838;37.184;2023-04-22T04:09:59;98673.75;;;7.72;37.04
65534;BME280;53640;55.838;37.184;2023-04-22T04:12:26;98687.13;;;7.85;36.81
65534;BME280;53640;55.838;37.184;2023-04-22T04:17:51;98741.44;;;8.20;36.78
65534;BME280;53640;55.838;37.184;2023-04-22T04:20:24;98691.22;;;7.94;36.75
65534;BME280;53640;55.838;37.184;2023-04-22T04:22:53;98667.66;;;7.83;36.88
65534;BME280;53640;55.838;37.184;2023-04-22T04:25:21;98734.97;;;8.28;37.05
65534;BME280;53640;55.838;37.184;2023-04-22T04:27:54;98631.50;;;7.66;37.04
65534;BME280;53640;55.838;37.184;2023-04-22T04:30:24;98663.25;;;7.88;36.78
65534;BME280;53640;55.838;37.184;2023-04-22T04:32:53;98697.28;;;8.15;36.51
65534;BME280;53640;55.838;37.184;2023-04-22T04:35:22;98722.09;;;8.30;37.10
65534;BME280;53640;55.838;37.184;2023-04-22T04:37:55;98637.16;;;7.82;36.74
65534;BME280;53640;55.838;37.184;2023-04-22T04:40:25;98731.91;;;8.49;36.96
65534;BME280;53640;55.838;37.184;2023-04-22T04:43:05;98655.88;;;8.09;36.87
65534;BME280;53640;55.838;37.184;2023-04-22T04:45:41;98731.84;;;8.56;36.93
65534;BME280;53640;55.838;37.184;2023-04-22T04:48:14;98660.75;;;8.19;36.58
65534;BME280;53640;55.838;37.184;2023-04-22T04:50:47;98727.66;;;8.60;36.90
65534;BME280;53640;55.838;37.184;2023-04-22T04:53:16;98702.34;;;8.61;37.96
65534;BME280;53640;55.838;37.184;2023-04-22T04:55:44;98750.97;;;8.98;36.81
65534;BME280;53640;55.838;37.184;2023-04-22T04:58:18;98733.34;;;8.95;36.50
65534;BME280;53640;55.838;37.184;2023-04-22T05:00:49;98709.25;;;8.75;36.49
65534;BME280;53640;55.838;37.184;2023-04-22T05:03:19;98687.16;;;8.67;36.65
65534;BME280;53640;55.838;37.184;2023-04-22T05:05:46;98760.38;;;9.14;36.09
65534;BME280;53640;55.838;37.184;2023-04-22T05:08:16;98700.50;;;8.80;36.37
65534;BME280;53640;55.838;37.184;2023-04-22T05:10:46;98757.03;;;9.18;36.08
65534;BME280;53640;55.838;37.184;2023-04-22T05:13:13;98709.59;;;8.85;36.46
65534;BME280;53640;55.838;37.184;2023-04-22T05:15:44;98714.78;;;9.05;36.50
65534;BME280;53640;55.838;37.184;2023-04-22T05:18:10;98668.97;;;8.80;36.12
65534;BME280;53640;55.838;37.184;2023-04-22T05:20:37;98772.81;;;9.58;35.67
65534;BME280;53640;55.838;37.184;2023-04-22T05:23:06;98699.84;;;9.21;35.57
65534;BME280;53640;55.838;37.184;2023-04-22T05:25:34;98742.41;;;9.63;35.65
65534;BME280;53640;55.838;37.184;2023-04-22T05:28:07;98728.75;;;9.57;35.41
65534;BME280;53640;55.838;37.184;2023-04-22T05:30:50;98681.63;;;9.35;34.54
65534;BME280;53640;55.838;37.184;2023-04-22T05:33:17;98710.72;;;9.70;34.66
65534;BME280;53640;55.838;37.184;2023-04-22T05:35:43;98693.56;;;9.64;34.63
65534;BME280;53640;55.838;37.184;2023-04-22T05:38:10;98770.06;;;10.25;34.40
65534;BME280;53640;55.838;37.184;2023-04-22T05:40:39;98709.31;;;9.97;34.17
65534;BME280;53640;55.838;37.184;2023-04-22T05:43:10;98765.53;;;10.49;34.21
65534;BME280;53640;55.838;37.184;2023-04-22T05:45:45;98757.13;;;10.57;34.18
65534;BME280;53640;55.838;37.184;2023-04-22T05:48:15;98728.84;;;10.53;33.64
65534;BME280;53640;55.838;37.184;2023-04-22T05:50:52;98689.66;;;10.32;33.30
65534;BME280;53640;55.838;37.184;2023-04-22T05:53:22;98741.97;;;10.79;32.67
65534;BME280;53640;55.838;37.184;2023-04-22T05:55:49;98741.84;;;10.98;32.61
65534;BME280;53640;55.838;37.184;2023-04-22T05:58:17;98731.28;;;10.96;32.06
65534;BME280;53640;55.838;37.184;2023-04-22T06:01:08;98708.44;;;10.92;31.54
65534;BME280;53640;55.838;37.184;2023-04-22T06:03:53;98741.72;;;11.28;31.69
65534;BME280;53640;55.838;37.184;2023-04-22T06:06:19;98737.66;;;11.54;31.00
65534;BME280;53640;55.838;37.184;2023-04-22T06:08:47;98768.59;;;11.93;30.84
65534;BME280;53640;55.838;37.184;2023-04-22T06:11:14;98771.69;;;12.14;30.54
65534;BME280;53640;55.838;37.184;2023-04-22T06:13:40;98722.44;;;12.05;30.02
65534;BME280;53640;55.838;37.184;2023-04-22T06:16:08;98725.84;;;12.29;29.62
65534;BME280;53640;55.838;37.184;2023-04-22T06:18:34;98720.66;;;12.44;29.19
65534;BME280;53640;55.838;37.184;2023-04-22T06:21:03;98693.72;;;12.38;29.16
65534;BME280;53640;55.838;37.184;2023-04-22T06:23:29;98744.06;;;12.96;28.75
65534;BME280;53640;55.838;37.184;2023-04-22T06:25:56;98772.59;;;13.32;28.21
65534;BME280;53640;55.838;37.184;2023-04-22T06:28:38;98636.59;;;12.66;28.05
65534;BME280;53640;55.838;37.184;2023-04-22T06:31:20;98735.44;;;13.38;27.55
65534;BME280;53640;55.838;37.184;2023-04-22T06:33:59;98687.38;;;13.22;27.34
65534;BME280;53640;55.838;37.184;2023-04-22T06:36:27;98737.16;;;13.66;27.55
65534;BME280;53640;55.838;37.184;2023-04-22T06:38:59;98739.47;;;13.74;27.37
65534;BME280;53640;55.838;37.184;2023-04-22T06:41:53;98764.75;;;13.97;26.36
65534;BME280;53640;55.838;37.184;2023-04-22T06:45:08;98758.69;;;13.89;26.39
65534;BME280;53640;55.838;37.184;2023-04-22T06:48:43;98626.50;;;13.01;26.58
65534;BME280;53640;55.838;37.184;2023-04-22T06:51:54;98764.75;;;13.97;26.60
65534;BME280;53640;55.838;37.184;2023-04-22T06:55:38;98626.63;;;13.11;26.09
65534;BME280;53640;55.838;37.184;2023-04-22T06:59:00;98668.72;;;13.30;26.36
65534;BME280;53640;55.838;37.184;2023-04-22T07:06:17;98660.13;;;12.94;27.01
65534;BME280;53640;55.838;37.184;2023-04-22T07:09:50;98626.06;;;12.87;26.48
65534;BME280;53640;55.838;37.184;2023-04-22T07:12:38;98743.78;;;13.53;26.49
65534;BME280;53640;55.838;37.184;2023-04-22T07:15:05;98700.34;;;13.36;27.07
65534;BME280;53640;55.838;37.184;2023-04-22T07:17:33;98752.56;;;13.77;27.02
65534;BME280;53640;55.838;37.184;2023-04-22T07:19:59;98758.53;;;14.01;26.18
65534;BME280;53640;55.838;37.184;2023-04-22T07:22:26;98703.13;;;13.85;26.13
65534;BME280;53640;55.838;37.184;2023-04-22T07:24:54;98680.25;;;13.81;26.23
65534;BME280;53640;55.838;37.184;2023-04-22T07:27:20;98722.53;;;14.21;25.64
65534;BME280;53640;55.838;37.184;2023-04-22T07:29:46;98733.41;;;14.48;25.50
65534;BME280;53640;55.838;37.184;2023-04-22T07:32:13;98726.94;;;14.54;25.24
65534;BME280;53640;55.838;37.184;2023-04-22T07:34:40;98738.88;;;14.80;25.14
65534;BME280;53640;55.838;37.184;2023-04-22T07:37:07;98722.00;;;14.78;25.08
65534;BME280;53640;55.838;37.184;2023-04-22T07:39:34;98751.59;;;15.07;25.01
65534;BME280;53640;55.838;37.184;2023-04-22T07:42:00;98705.09;;;14.81;24.76
65534;BME280;53640;55.838;37.184;2023-04-22T07:44:28;98730.00;;;14.95;24.84
65534;BME280;53640;55.838;37.184;2023-04-22T07:46:54;98728.56;;;14.82;24.86
65534;BME280;53640;55.838;37.184;2023-04-22T07:49:21;98752.09;;;14.99;24.84
65534;BME280;53640;55.838;37.184;2023-04-22T07:51:47;98731.69;;;14.64;24.72
65534;BME280;53640;55.838;37.184;2023-04-22T07:54:14;98756.22;;;14.69;25.05
65534;BME280;53640;55.838;37.184;2023-04-22T07:56:40;98770.94;;;14.68;25.13
65534;BME280;53640;55.838;37.184;2023-04-22T07:59:07;98752.47;;;14.48;25.17
65534;BME280;53640;55.838;37.184;2023-04-22T08:01:34;98728.59;;;14.28;25.52
65534;BME280;53640;55.838;37.184;2023-04-22T08:04:01;98750.69;;;14.32;25.38
65534;BME280;53640;55.838;37.184;2023-04-22T08:06:27;98768.34;;;14.29;25.67
65534;BME280;53640;55.838;37.184;2023-04-22T08:08:54;98743.91;;;14.07;25.83
65534;BME280;53640;55.838;37.184;2023-04-22T08:11:20;98771.22;;;14.17;25.88
65534;BME280;53640;55.838;37.184;2023-04-22T08:13:47;98761.53;;;14.27;26.28
65534;BME280;53640;55.838;37.184;2023-04-22T08:16:14;98728.78;;;14.22;24.98
65534;BME280;53640;55.838;37.184;2023-04-22T08:18:40;98728.53;;;14.50;24.55
65534;BME280;53640;55.838;37.184;2023-04-22T08:21:08;98752.94;;;15.04;24.11
65534;BME280;53640;55.838;37.184;2023-04-22T08:23:34;98727.47;;;15.26;23.73
65534;BME280;53640;55.838;37.184;2023-04-22T08:26:02;98752.53;;;15.65;23.20
65534;BME280;53640;55.838;37.184;2023-04-22T08:28:29;98743.78;;;15.63;22.89
65534;BME280;53640;55.838;37.184;2023-04-22T08:30:55;98707.63;;;15.41;23.34
65534;BME280;53640;55.838;37.184;2023-04-22T08:33:23;98758.53;;;15.72;23.50
65534;BME280;53640;55.838;37.184;2023-04-22T08:35:59;98681.31;;;15.14;23.67
65534;BME280;53640;55.838;37.184;2023-04-22T08:38:33;98666.19;;;14.86;23.87
65534;BME280;53640;55.838;37.184;2023-04-22T08:41:07;98762.47;;;15.39;23.84
65534;BME280;53640;55.838;37.184;2023-04-22T08:46:58;98757.72;;;15.24;23.74
65534;BME280;53640;55.838;37.184;2023-04-22T08:49:32;98629.09;;;14.48;23.87
65534;BME280;53640;55.838;37.184;2023-04-22T08:52:12;98667.16;;;14.70;23.52
65534;BME280;53640;55.838;37.184;2023-04-22T08:54:50;98657.00;;;15.02;22.89
65534;BME280;53640;55.838;37.184;2023-04-22T08:57:30;98736.00;;;16.07;22.07
65534;BME280;53640;55.838;37.184;2023-04-22T09:00:47;98620.53;;;15.92;21.71
65534;BME280;53640;55.838;37.184;2023-04-22T09:03:27;98604.13;;;16.02;20.82
65534;BME280;53640;55.838;37.184;2023-04-22T09:06:04;98625.44;;;16.05;21.38
65534;BME280;53640;55.838;37.184;2023-04-22T09:08:35;98668.06;;;16.21;20.71
65534;BME280;53640;55.838;37.184;2023-04-22T09:11:12;98664.75;;;16.09;21.32
65534;BME280;53640;55.838;37.184;2023-04-22T09:14:10;98712.56;;;16.32;20.82
65534;BME280;53640;55.838;37.184;2023-04-22T09:16:48;98623.44;;;15.65;20.87
65534;BME280;53640;55.838;37.184;2023-04-22T09:19:56;98743.94;;;16.24;20.86
65534;BME280;53640;55.838;37.184;2023-04-22T09:22:57;98651.56;;;15.70;20.97
65534;BME280;53640;55.838;37.184;2023-04-22T09:25:38;98603.00;;;15.72;20.90
65534;BME280;53640;55.838;37.184;2023-04-22T09:29:12;98651.66;;;16.11;20.98
65534;BME280;53640;55.838;37.184;2023-04-22T09:34:55;98695.06;;;16.28;21.00
65534;BME280;53640;55.838;37.184;2023-04-22T09:37:24;98646.16;;;15.85;21.22
65534;BME280;53640;55.838;37.184;2023-04-22T09:39:55;98661.19;;;15.93;21.33
65534;BME280;53640;55.838;37.184;2023-04-22T09:42:30;98672.38;;;15.97;21.55
65534;BME280;53640;55.838;37.184;2023-04-22T09:44:57;98632.50;;;15.80;21.47
65534;BME280;53640;55.838;37.184;2023-04-22T09:52:38;98743.47;;;17.24;20.38
65534;BME280;53640;55.838;37.184;2023-04-22T10:13:49;98679.16;;;21.68;15.41
65534;BME280;53640;55.838;37.184;2023-04-22T10:51:43;98683.97;;;21.48;15.61
65534;BME280;53640;55.838;37.184;2023-04-22T10:57:02;98723.38;;;22.94;15.08
65534;BME280;53640;55.838;37.184;2023-04-22T10:59:48;98672.38;;;23.14;14.18
65534;BME280;53640;55.838;37.184;2023-04-22T11:03:09;98719.19;;;24.16;13.91
65534;BME280;53640;55.838;37.184;2023-04-22T11:05:57;98638.47;;;24.22;13.68
65534;BME280;53640;55.838;37.184;2023-04-22T11:11:51;98656.41;;;25.07;13.04
65534;BME280;53640;55.838;37.184;2023-04-22T11:14:48;98599.69;;;24.66;12.47
65534;BME280;53640;55.838;37.184;2023-04-22T11:17:35;98649.88;;;24.38;13.03
65534;BME280;53640;55.838;37.184;2023-04-22T11:20:39;98607.38;;;23.16;13.50
65534;BME280;53640;55.838;37.184;2023-04-22T11:23:22;98723.06;;;23.18;14.08
65534;BME280;53640;55.838;37.184;2023-04-22T11:26:05;98597.66;;;22.25;14.60
65534;BME280;53640;55.838;37.184;2023-04-22T11:28:44;98585.63;;;22.75;14.63
65534;BME280;53640;55.838;37.184;2023-04-22T11:34:53;98603.94;;;24.37;13.68
65534;BME280;53640;55.838;37.184;2023-04-22T11:56:30;98697.25;;;26.91;11.81
65534;BME280;53640;55.838;37.184;2023-04-22T11:59:31;98592.78;;;26.53;11.76
65534;BME280;53640;55.838;37.184;2023-04-22T12:02:19;98600.72;;;26.88;11.98
65534;BME280;53640;55.838;37.184;2023-04-22T12:05:53;98596.78;;;27.38;11.28
65534;BME280;53640;55.838;37.184;2023-04-22T12:09:11;98633.94;;;27.82;10.86
65534;BME280;53640;55.838;37.184;2023-04-22T12:18:52;98591.84;;;26.95;11.09
65534;BME280;53640;55.838;37.184;2023-04-22T12:29:54;98658.84;;;26.60;11.38
65534;BME280;53640;55.838;37.184;2023-04-22T12:53:44;98564.91;;;24.39;12.68
65534;BME280;53640;55.838;37.184;2023-04-22T13:01:51;98655.56;;;23.98;13.52
65534;BME280;53640;55.838;37.184;2023-04-22T13:04:20;98641.72;;;24.42;13.00
65534;BME280;53640;55.838;37.184;2023-04-22T13:06:50;98664.91;;;24.93;13.06
65534;BME280;53640;55.838;37.184;2023-04-22T13:09:23;98649.63;;;25.34;12.73
65534;BME280;53640;55.838;37.184;2023-04-22T13:11:50;98673.75;;;25.92;12.64
65534;BME280;53640;55.838;37.184;2023-04-22T13:14:17;98668.47;;;26.20;11.74
65534;BME280;53640;55.838;37.184;2023-04-22T13:16:44;98624.88;;;26.21;11.84
65534;BME280;53640;55.838;37.184;2023-04-22T13:19:11;98652.56;;;26.51;11.30
65534;BME280;53640;55.838;37.184;2023-04-22T13:21:38;98658.88;;;26.39;11.51
65534;BME280;53640;55.838;37.184;2023-04-22T13:24:05;98641.00;;;26.28;11.78
65534;BME280;53640;55.838;37.184;2023-04-22T13:26:34;98652.66;;;26.42;11.48
65534;BME280;53640;55.838;37.184;2023-04-22T13:29:00;98661.69;;;26.51;11.95
65534;BME280;53640;55.838;37.184;2023-04-22T13:31:28;98624.50;;;26.10;12.08
65534;BME280;53640;55.838;37.184;2023-04-22T13:33:56;98649.19;;;25.82;11.87
65534;BME280;53640;55.838;37.184;2023-04-22T13:36:31;98576.09;;;24.68;12.46
65534;BME280;53640;55.838;37.184;2023-04-22T13:38:59;98661.72;;;24.65;12.79
65534;BME280;53640;55.838;37.184;2023-04-22T13:41:26;98642.53;;;23.99;13.10
65534;BME280;53640;55.838;37.184;2023-04-22T13:43:52;98627.97;;;23.41;13.62
65534;BME280;53640;55.838;37.184;2023-04-22T13:46:21;98622.66;;;22.82;14.02
65534;BME280;53640;55.838;37.184;2023-04-22T13:48:50;98643.91;;;22.51;14.14
65534;BME280;53640;55.838;37.184;2023-04-22T13:51:17;98661.69;;;22.22;14.42
65534;BME280;53640;55.838;37.184;2023-04-22T13:53:45;98674.72;;;21.94;14.57
65534;BME280;53640;55.838;37.184;2023-04-22T13:56:13;98578.75;;;20.96;15.24
65534;BME280;53640;55.838;37.184;2023-04-22T13:58:40;98690.25;;;21.35;15.73
65534;BME280;53640;55.838;37.184;2023-04-22T14:01:08;98654.94;;;20.82;15.63
65534;BME280;53640;55.838;37.184;2023-04-22T14:03:35;98677.19;;;20.66;16.02
65534;BME280;53640;55.838;37.184;2023-04-22T14:06:02;98671.56;;;20.25;15.74
65534;BME280;53640;55.838;37.184;2023-04-22T14:08:29;98637.31;;;19.80;16.43
65534;BME280;53640;55.838;37.184;2023-04-22T14:10:55;98609.84;;;19.37;16.19
65534;BME280;53640;55.838;37.184;2023-04-22T14:13:28;98671.19;;;19.51;16.70
65534;BME280;53640;55.838;37.184;2023-04-22T14:15:56;98654.47;;;19.23;17.11
65534;BME280;53640;55.838;37.184;2023-04-22T14:18:23;98641.84;;;18.98;17.14
65534;BME280;53640;55.838;37.184;2023-04-22T14:20:51;98630.81;;;18.80;17.28
65534;BME280;53640;55.838;37.184;2023-04-22T14:23:18;98621.91;;;18.64;17.65
65534;BME280;53640;55.838;37.184;2023-04-22T14:26:18;98679.28;;;18.89;17.70
65534;BME280;53640;55.838;37.184;2023-04-22T14:28:48;98636.00;;;18.52;17.83
65534;BME280;53640;55.838;37.184;2023-04-22T14:31:16;98690.03;;;18.81;17.81
65534;BME280;53640;55.838;37.184;2023-04-22T14:33:42;98639.63;;;18.42;18.12
65534;BME280;53640;55.838;37.184;2023-04-22T14:36:10;98625.25;;;18.26;17.73
65534;BME280;53640;55.838;37.184;2023-04-22T14:38:37;98641.94;;;18.30;18.15
65534;BME280;53640;55.838;37.184;2023-04-22T14:41:05;98632.47;;;18.17;18.40
65534;BME280;53640;55.838;37.184;2023-04-22T14:43:32;98592.09;;;17.89;18.45
65534;BME280;53640;55.838;37.184;2023-04-22T14:45:59;98655.38;;;18.26;18.58
65534;BME280;53640;55.838;37.184;2023-04-22T14:48:26;98653.31;;;18.08;18.19
65534;BME280;53640;55.838;37.184;2023-04-22T14:50:57;98636.72;;;17.89;18.79
65534;BME280;53640;55.838;37.184;2023-04-22T14:53:25;98628.34;;;17.75;18.49
65534;BME280;53640;55.838;37.184;2023-04-22T14:55:51;98596.19;;;17.47;18.72
65534;BME280;53640;55.838;37.184;2023-04-22T14:58:21;98581.22;;;17.34;18.69
65534;BME280;53640;55.838;37.184;2023-04-22T15:00:53;98600.59;;;17.38;19.17
65534;BME280;53640;55.838;37.184;2023-04-22T15:03:22;98674.63;;;17.72;18.95
65534;BME280;53640;55.838;37.184;2023-04-22T15:05:53;98627.16;;;17.42;18.77
65534;BME280;53640;55.838;37.184;2023-04-22T15:08:20;98569.84;;;16.96;19.03
65534;BME280;53640;55.838;37.184;2023-04-22T15:10:53;98608.09;;;17.17;19.01
65534;BME280;53640;55.838;37.184;2023-04-22T15:13:23;98615.47;;;17.11;19.39
65534;BME280;53640;55.838;37.184;2023-04-22T15:15:51;98661.38;;;17.35;18.92
65534;BME280;53640;55.838;37.184;2023-04-22T15:18:45;98688.41;;;17.41;19.50
65534;BME280;53640;55.838;37.184;2023-04-22T15:21:14;98593.69;;;16.80;19.06
65534;BME280;53640;55.838;37.184;2023-04-22T15:23:41;98701.84;;;17.38;19.30
65534;BME280;53640;55.838;37.184;2023-04-22T15:26:07;98720.69;;;17.44;19.40
65534;BME280;53640;55.838;37.184;2023-04-22T15:28:35;98714.69;;;17.37;19.35
65534;BME280;53640;55.838;37.184;2023-04-22T15:31:01;98671.31;;;16.95;19.59
65534;BME280;53640;55.838;37.184;2023-04-22T15:33:30;98684.97;;;16.95;19.73
65534;BME280;53640;55.838;37.184;2023-04-22T15:35:57;98699.72;;;16.99;19.81
65534;BME280;53640;55.838;37.184;2023-04-22T15:38:23;98687.16;;;16.88;19.61
65534;BME280;53640;55.838;37.184;2023-04-22T15:40:50;98708.47;;;16.96;19.90
65534;BME280;53640;55.838;37.184;2023-04-22T15:43:18;98714.75;;;16.96;20.00
65534;BME280;53640;55.838;37.184;2023-04-22T15:45:45;98716.69;;;16.96;19.93
65534;BME280;53640;55.838;37.184;2023-04-22T15:48:11;98720.53;;;16.90;20.09